Aviation Digital Data Service (ADDS)

Output produced by METARs form (0638 UTC 27 July 2016)
found at http://aviationweather.gov/adds/metars/
 
KBAF 270520Z 2706/2806 VRB03KT P6SM SKC 
     FM271500 29007KT P6SM FEW060 
     FM280000 22005KT P6SM SKC